createdAt,value
2019-02-21T00:00:48.161Z,6.66
2019-02-21T00:01:48.159Z,6.54
2019-02-21T00:02:48.146Z,6.57
2019-02-21T00:03:48.152Z,6.60
2019-02-21T00:04:48.129Z,6.49
2019-02-21T00:05:48.108Z,6.52
2019-02-21T00:06:48.099Z,6.46
2019-02-21T00:07:48.089Z,6.27
2019-02-21T00:08:48.103Z,6.35
2019-02-21T00:09:48.075Z,6.39
2019-02-21T00:10:48.065Z,6.31
2019-02-21T00:11:48.052Z,6.51
2019-02-21T00:12:48.040Z,6.57
2019-02-21T00:13:48.023Z,6.60
2019-02-21T00:14:48.037Z,6.56
2019-02-21T00:15:48.007Z,6.60
2019-02-21T00:16:47.997Z,6.59
2019-02-21T00:17:47.980Z,6.66
2019-02-21T00:18:47.979Z,6.74
2019-02-21T00:19:47.964Z,6.67
2019-02-21T00:20:47.982Z,6.56
2019-02-21T00:21:47.944Z,6.54
2019-02-21T00:22:47.931Z,6.54
2019-02-21T00:23:47.920Z,6.59
2019-02-21T00:24:47.913Z,6.62
2019-02-21T00:25:47.922Z,6.60
2019-02-21T00:26:47.887Z,6.56
2019-02-21T00:27:47.875Z,6.54
2019-02-21T00:28:47.864Z,6.52
2019-02-21T00:29:47.860Z,6.49
2019-02-21T00:30:47.850Z,6.49
2019-02-21T00:31:47.851Z,6.36
2019-02-21T00:32:47.819Z,6.36
2019-02-21T00:33:47.816Z,6.35
2019-02-21T00:34:47.807Z,6.41
2019-02-21T00:35:47.858Z,6.28
2019-02-21T00:36:47.800Z,6.26
2019-02-21T00:37:47.766Z,6.28
2019-02-21T00:38:47.759Z,6.28
2019-02-21T00:39:47.747Z,6.35
2019-02-21T00:40:47.735Z,6.41
2019-02-21T00:41:47.754Z,6.38
2019-02-21T00:42:47.717Z,6.41
2019-02-21T00:43:47.710Z,6.35
2019-02-21T00:44:47.698Z,6.35
2019-02-21T00:45:47.712Z,6.38
2019-02-21T00:46:47.672Z,6.26
2019-02-21T00:47:47.681Z,6.24
2019-02-21T00:48:47.657Z,6.16
2019-02-21T00:49:47.640Z,6.07
2019-02-21T00:50:47.630Z,6.05
2019-02-21T00:51:47.636Z,6.01
2019-02-21T00:52:47.606Z,5.97
2019-02-21T00:53:47.609Z,5.91
2019-02-21T00:54:47.593Z,5.93
2019-02-21T00:55:47.588Z,5.97
2019-02-21T00:56:47.665Z,5.97
2019-02-21T00:57:47.608Z,5.90
2019-02-21T00:58:47.542Z,5.82
2019-02-21T00:59:47.534Z,5.84
2019-02-21T01:00:47.521Z,5.87
2019-02-21T01:01:47.517Z,5.76
2019-02-21T01:02:47.533Z,5.71
2019-02-21T01:03:47.508Z,5.75
2019-02-21T01:04:47.478Z,5.84
2019-02-21T01:05:47.475Z,5.86
2019-02-21T01:06:47.465Z,5.93
2019-02-21T01:07:47.452Z,5.86
2019-02-21T01:08:47.462Z,5.82
2019-02-21T01:09:47.475Z,5.82
2019-02-21T01:10:47.416Z,5.90
2019-02-21T01:11:47.503Z,5.99
2019-02-21T01:12:47.393Z,6.07
2019-02-21T01:13:47.445Z,6.02
2019-02-21T01:14:47.377Z,6.01
2019-02-21T01:15:47.459Z,5.94
2019-02-21T01:16:47.357Z,5.99
2019-02-21T01:17:47.481Z,6.05
2019-02-21T01:18:47.330Z,5.98
2019-02-21T01:19:47.488Z,6.02
2019-02-21T01:20:47.312Z,6.01
2019-02-21T01:21:47.314Z,5.99
2019-02-21T01:22:47.286Z,6.07
2019-02-21T01:23:47.304Z,6.05
2019-02-21T01:24:47.291Z,5.98
2019-02-21T01:25:47.280Z,5.89
2019-02-21T01:26:47.246Z,5.84
2019-02-21T01:27:47.234Z,5.89
2019-02-21T01:28:47.227Z,5.71
2019-02-21T01:29:47.221Z,5.87
2019-02-21T01:30:56.682Z,5.83
2019-02-21T01:31:48.189Z,5.80
2019-02-21T01:32:47.225Z,5.84
2019-02-21T01:33:47.187Z,5.89
2019-02-21T01:34:47.161Z,5.83
2019-02-21T01:35:47.173Z,5.86
2019-02-21T01:36:47.137Z,5.72
2019-02-21T01:37:47.131Z,5.71
2019-02-21T01:38:47.118Z,5.64
2019-02-21T01:39:47.111Z,5.65
2019-02-21T01:40:47.099Z,5.65
2019-02-21T01:41:47.107Z,5.75
2019-02-21T01:42:47.078Z,5.71
2019-02-21T01:43:47.063Z,5.79
2019-02-21T01:44:47.058Z,5.73
2019-02-21T01:45:47.045Z,5.71
2019-02-21T01:46:47.048Z,5.68
2019-02-21T01:47:47.059Z,5.79
2019-02-21T01:48:47.014Z,5.86
2019-02-21T01:49:47.059Z,5.83
2019-02-21T01:50:46.987Z,5.83
2019-02-21T01:51:46.985Z,5.82
2019-02-21T01:52:47.034Z,5.90
2019-02-21T01:53:46.954Z,6.02
2019-02-21T01:54:46.961Z,5.87
2019-02-21T01:55:46.960Z,5.86
2019-02-21T01:56:46.919Z,5.94
2019-02-21T01:57:46.915Z,6.01
2019-02-21T01:58:46.972Z,6.05
2019-02-21T01:59:46.890Z,5.93
2019-02-21T02:00:47.083Z,5.79
2019-02-21T02:01:46.868Z,5.83
2019-02-21T02:02:46.884Z,5.83
2019-02-21T02:03:46.882Z,5.87
2019-02-21T02:04:46.852Z,5.83
2019-02-21T02:05:46.829Z,5.87
2019-02-21T02:06:46.816Z,5.80
2019-02-21T02:07:46.803Z,5.66
2019-02-21T02:08:46.789Z,5.57
2019-02-21T02:09:46.809Z,5.61
2019-02-21T02:10:46.773Z,5.48
2019-02-21T02:11:46.795Z,5.46
2019-02-21T02:12:46.752Z,5.46
2019-02-21T02:13:46.734Z,5.38
2019-02-21T02:14:46.726Z,5.33
2019-02-21T02:15:46.740Z,5.36
2019-02-21T02:16:46.702Z,5.38
2019-02-21T02:17:46.702Z,5.30
2019-02-21T02:18:46.685Z,5.32
2019-02-21T02:19:46.675Z,5.28
2019-02-21T02:20:46.666Z,5.23
2019-02-21T02:21:46.678Z,5.05
2019-02-21T02:22:46.640Z,5.07
2019-02-21T02:23:46.641Z,4.94
2019-02-21T02:24:46.633Z,4.74
2019-02-21T02:25:46.611Z,4.71
2019-02-21T02:26:46.614Z,4.63
2019-02-21T02:27:46.592Z,4.74
2019-02-21T02:28:46.574Z,4.58
2019-02-21T02:29:46.569Z,4.60
2019-02-21T02:30:46.557Z,4.63
2019-02-21T02:31:46.587Z,4.70
2019-02-21T02:32:46.600Z,4.55
2019-02-21T02:33:46.564Z,4.67
2019-02-21T02:34:46.512Z,4.56
2019-02-21T02:35:46.500Z,4.48
2019-02-21T02:36:46.494Z,4.60
2019-02-21T02:37:46.484Z,4.77
2019-02-21T02:38:46.493Z,4.77
2019-02-21T02:39:46.456Z,4.77
2019-02-21T02:40:46.476Z,4.78
2019-02-21T02:41:46.442Z,4.59
2019-02-21T02:42:46.428Z,4.49
2019-02-21T02:43:46.543Z,4.34
2019-02-21T02:44:46.409Z,4.30
2019-02-21T02:45:46.411Z,4.30
2019-02-21T02:46:46.385Z,4.30
2019-02-21T02:47:46.471Z,4.17
2019-02-21T02:48:46.386Z,4.22
2019-02-21T02:49:46.465Z,4.08
2019-02-21T02:50:46.349Z,4.06
2019-02-21T02:51:46.333Z,4.06
2019-02-21T02:52:46.329Z,4.13
2019-02-21T02:53:46.316Z,3.96
2019-02-21T02:54:46.297Z,3.95
2019-02-21T02:55:46.321Z,3.95
2019-02-21T02:56:46.282Z,4.02
2019-02-21T02:57:46.264Z,4.02
2019-02-21T02:58:46.258Z,4.22
2019-02-21T02:59:46.250Z,4.20
2019-02-21T03:00:46.232Z,4.30
2019-02-21T03:01:46.246Z,4.24
2019-02-21T03:02:46.217Z,4.37
2019-02-21T03:03:46.226Z,4.20
2019-02-21T03:04:46.236Z,4.38
2019-02-21T03:05:46.183Z,4.49
2019-02-21T03:06:46.188Z,4.52
2019-02-21T03:07:46.162Z,4.59
2019-02-21T03:08:46.168Z,4.77
2019-02-21T03:09:46.145Z,4.92
2019-02-21T03:10:46.198Z,4.96
2019-02-21T03:11:46.171Z,4.97
2019-02-21T03:12:46.107Z,5.08
2019-02-21T03:13:46.099Z,5.10
2019-02-21T03:14:46.108Z,5.29
2019-02-21T03:15:46.079Z,5.38
2019-02-21T03:16:46.083Z,5.47
2019-02-21T03:17:46.058Z,5.57
2019-02-21T03:18:46.068Z,5.79
2019-02-21T03:19:46.103Z,5.75
2019-02-21T03:20:46.020Z,5.82
2019-02-21T03:21:46.012Z,5.90
2019-02-21T03:22:46.077Z,6.07
2019-02-21T03:23:45.993Z,6.09
2019-02-21T03:24:45.996Z,6.19
2019-02-21T03:25:45.997Z,6.27
2019-02-21T03:26:45.966Z,6.38
2019-02-21T03:27:45.968Z,6.39
2019-02-21T03:28:45.936Z,6.49
2019-02-21T03:29:45.948Z,6.63
2019-02-21T03:30:45.913Z,6.77
2019-02-21T03:31:54.181Z,6.78
2019-02-21T03:32:46.904Z,6.88
2019-02-21T03:33:45.982Z,6.82
2019-02-21T03:34:45.893Z,6.84
2019-02-21T03:35:45.889Z,6.79
2019-02-21T03:36:45.885Z,6.82
2019-02-21T03:37:45.932Z,6.82
2019-02-21T03:38:45.828Z,6.84
2019-02-21T03:39:45.834Z,6.81
2019-02-21T03:40:45.808Z,6.79
2019-02-21T03:41:45.797Z,6.95
2019-02-21T03:42:45.793Z,6.87
2019-02-21T03:43:45.771Z,6.79
2019-02-21T03:44:45.782Z,6.96
2019-02-21T03:45:45.754Z,6.92
2019-02-21T03:46:45.746Z,6.99
2019-02-21T03:47:45.748Z,6.95
2019-02-21T03:48:45.742Z,6.89
2019-02-21T03:49:45.755Z,6.95
2019-02-21T03:50:45.698Z,7.00
2019-02-21T03:51:45.687Z,6.84
2019-02-21T03:52:45.679Z,6.87
2019-02-21T03:53:45.669Z,6.97
2019-02-21T03:54:45.699Z,6.96
2019-02-21T03:55:45.663Z,6.93
2019-02-21T03:56:45.665Z,6.89
2019-02-21T03:57:45.625Z,6.84
2019-02-21T03:58:45.610Z,6.79
2019-02-21T03:59:45.610Z,6.88
2019-02-21T04:00:45.626Z,6.87
2019-02-21T04:01:45.580Z,6.88
2019-02-21T04:02:45.569Z,6.85
2019-02-21T04:03:45.558Z,6.82
2019-02-21T04:04:45.586Z,6.70
2019-02-21T04:05:45.586Z,6.72
2019-02-21T04:06:45.549Z,6.78
2019-02-21T04:07:45.522Z,6.70
2019-02-21T04:08:45.515Z,6.63
2019-02-21T04:09:45.494Z,6.52
2019-02-21T04:10:45.499Z,6.54
2019-02-21T04:11:45.472Z,6.57
2019-02-21T04:12:45.463Z,6.54
2019-02-21T04:13:45.474Z,6.49
2019-02-21T04:14:45.446Z,6.36
2019-02-21T04:15:45.462Z,6.28
2019-02-21T04:16:45.434Z,6.39
2019-02-21T04:17:45.447Z,6.35
2019-02-21T04:18:45.403Z,6.38
2019-02-21T04:19:45.393Z,6.28
2019-02-21T04:20:45.403Z,6.41
2019-02-21T04:21:45.366Z,6.44
2019-02-21T04:22:45.352Z,6.52
2019-02-21T04:23:45.364Z,6.42
2019-02-21T04:24:45.334Z,6.35
2019-02-21T04:25:45.355Z,6.41
2019-02-21T04:26:45.353Z,6.35
2019-02-21T04:27:45.330Z,6.42
2019-02-21T04:28:45.919Z,6.39
2019-02-21T04:29:45.290Z,6.38
2019-02-21T04:30:45.267Z,6.39
2019-02-21T04:31:45.366Z,6.41
2019-02-21T04:32:45.276Z,6.41
2019-02-21T04:33:45.330Z,6.36
2019-02-21T04:34:45.225Z,6.39
2019-02-21T04:35:45.231Z,6.35
2019-02-21T04:36:45.203Z,6.42
2019-02-21T04:37:45.197Z,6.31
2019-02-21T04:38:45.246Z,6.33
2019-02-21T04:39:45.178Z,6.28
2019-02-21T04:40:45.189Z,6.26
2019-02-21T04:41:45.155Z,6.28
2019-02-21T04:42:45.169Z,6.22
2019-02-21T04:43:45.127Z,6.30
2019-02-21T04:44:45.119Z,6.38
2019-02-21T04:45:45.120Z,6.20
2019-02-21T04:46:45.120Z,6.12
2019-02-21T04:47:45.092Z,6.19
2019-02-21T04:48:45.077Z,6.19
2019-02-21T04:49:45.068Z,6.14
2019-02-21T04:50:45.060Z,6.22
2019-02-21T04:51:45.078Z,6.30
2019-02-21T04:52:45.040Z,6.28
2019-02-21T04:53:45.024Z,6.30
2019-02-21T04:54:45.011Z,6.33
2019-02-21T04:55:45.000Z,6.31
2019-02-21T04:56:44.990Z,6.39
2019-02-21T04:57:45.000Z,6.31
2019-02-21T04:58:44.975Z,6.20
2019-02-21T04:59:44.965Z,6.19
2019-02-21T05:00:44.950Z,6.19
2019-02-21T05:01:44.964Z,6.35
2019-02-21T05:02:44.941Z,6.35
2019-02-21T05:03:44.955Z,6.36
2019-02-21T05:04:44.907Z,6.27
2019-02-21T05:05:44.899Z,6.33
2019-02-21T05:06:44.899Z,6.26
2019-02-21T05:07:44.924Z,6.27
2019-02-21T05:08:44.863Z,6.27
2019-02-21T05:09:57.006Z,6.33
2019-02-21T05:10:45.853Z,6.20
2019-02-21T05:11:44.859Z,6.20
2019-02-21T05:12:44.823Z,6.12
2019-02-21T05:13:44.809Z,6.17
2019-02-21T05:14:44.810Z,6.22
2019-02-21T05:15:44.785Z,6.20
2019-02-21T05:16:44.848Z,6.31
2019-02-21T05:17:44.791Z,6.33
2019-02-21T05:18:44.834Z,6.36
2019-02-21T05:19:44.745Z,6.33
2019-02-21T05:20:44.829Z,6.28
2019-02-21T05:21:44.726Z,6.33
2019-02-21T05:22:44.740Z,6.30
2019-02-21T05:23:44.708Z,6.17
2019-02-21T05:24:44.695Z,6.24
2019-02-21T05:25:44.685Z,6.09
2019-02-21T05:26:44.672Z,6.17
2019-02-21T05:27:44.657Z,6.16
2019-02-21T05:28:44.673Z,6.20
2019-02-21T05:29:44.642Z,6.27
2019-02-21T05:30:44.639Z,6.19
2019-02-21T05:31:44.623Z,6.22
2019-02-21T05:32:44.628Z,6.22
2019-02-21T05:33:44.605Z,6.19
2019-02-21T05:34:44.584Z,6.14
2019-02-21T05:35:44.579Z,6.14
2019-02-21T05:36:44.568Z,6.12
2019-02-21T05:37:44.599Z,6.12
2019-02-21T05:38:44.542Z,6.07
2019-02-21T05:39:44.565Z,6.07
2019-02-21T05:40:44.527Z,6.01
2019-02-21T05:41:44.545Z,6.05
2019-02-21T05:42:44.511Z,5.99
2019-02-21T05:43:47.200Z,5.98
2019-02-21T05:44:44.481Z,6.01
2019-02-21T05:45:46.824Z,5.99
2019-02-21T05:46:44.455Z,6.14
2019-02-21T05:47:44.513Z,6.04
2019-02-21T05:48:44.480Z,6.12
2019-02-21T05:49:44.432Z,6.14
2019-02-21T05:50:44.420Z,6.12
2019-02-21T05:51:44.402Z,6.11
2019-02-21T05:52:44.414Z,6.05
2019-02-21T05:53:44.405Z,6.05
2019-02-21T05:54:44.379Z,6.02
2019-02-21T05:55:44.369Z,6.01
2019-02-21T05:56:44.373Z,6.02
2019-02-21T05:57:44.345Z,6.02
2019-02-21T05:58:44.329Z,6.05
2019-02-21T05:59:44.318Z,6.05
2019-02-21T06:00:44.309Z,6.05
2019-02-21T06:01:44.317Z,5.99
2019-02-21T06:02:53.191Z,5.99
2019-02-21T06:03:45.280Z,6.07
2019-02-21T06:04:44.292Z,6.08
2019-02-21T06:05:44.256Z,6.08
2019-02-21T06:06:44.292Z,6.05
2019-02-21T06:07:44.242Z,6.01
2019-02-21T06:08:44.310Z,5.90
2019-02-21T06:09:44.215Z,5.84
2019-02-21T06:10:44.267Z,5.84
2019-02-21T06:11:44.211Z,5.73
2019-02-21T06:12:44.246Z,5.75
2019-02-21T06:13:44.792Z,5.72
2019-02-21T06:14:44.187Z,5.75
2019-02-21T06:15:44.156Z,5.76
2019-02-21T06:16:44.344Z,5.71
2019-02-21T06:17:44.130Z,5.76
2019-02-21T06:18:44.206Z,5.89
2019-02-21T06:19:44.105Z,5.87
2019-02-21T06:20:44.109Z,5.87
2019-02-21T06:21:44.091Z,5.90
2019-02-21T06:22:44.124Z,5.97
2019-02-21T06:23:44.106Z,5.87
2019-02-21T06:24:44.488Z,5.93
2019-02-21T06:25:51.445Z,5.98
2019-02-21T06:26:45.043Z,5.90
2019-02-21T06:27:44.066Z,5.89
2019-02-21T06:28:44.020Z,5.93
2019-02-21T06:29:44.064Z,5.91
2019-02-21T06:30:44.015Z,5.91
2019-02-21T06:31:44.005Z,5.99
2019-02-21T06:32:43.968Z,6.02
2019-02-21T06:33:43.960Z,5.97
2019-02-21T06:34:43.976Z,5.90
2019-02-21T06:35:44.565Z,5.98
2019-02-21T06:36:43.957Z,6.01
2019-02-21T06:37:43.949Z,5.97
2019-02-21T06:38:43.963Z,6.02
2019-02-21T06:39:43.983Z,6.02
2019-02-21T06:40:43.972Z,6.01
2019-02-21T06:41:43.901Z,6.02
2019-02-21T06:42:43.970Z,5.94
2019-02-21T06:43:43.935Z,5.93
2019-02-21T06:44:43.862Z,5.86
2019-02-21T06:45:43.863Z,5.82
2019-02-21T06:46:43.888Z,5.82
2019-02-21T06:47:43.875Z,5.65
2019-02-21T06:48:43.802Z,5.59
2019-02-21T06:49:43.893Z,5.53
2019-02-21T06:50:43.839Z,5.51
2019-02-21T06:51:44.160Z,5.51
2019-02-21T06:52:43.848Z,5.51
2019-02-21T06:53:43.747Z,5.57
2019-02-21T06:54:43.864Z,5.59
2019-02-21T06:55:43.866Z,5.61
2019-02-21T06:56:43.870Z,5.65
2019-02-21T06:57:44.753Z,5.65
2019-02-21T06:58:43.705Z,5.64
2019-02-21T06:59:45.421Z,5.66
2019-02-21T07:00:46.172Z,5.64
2019-02-21T07:01:43.726Z,5.79
2019-02-21T07:02:43.666Z,5.72
2019-02-21T07:03:43.722Z,5.66
2019-02-21T07:04:43.652Z,5.83
2019-02-21T07:05:43.621Z,5.97
2019-02-21T07:06:43.613Z,6.05
2019-02-21T07:07:43.621Z,5.99
2019-02-21T07:08:43.705Z,6.09
2019-02-21T07:09:43.802Z,6.12
2019-02-21T07:10:43.560Z,6.20
2019-02-21T07:11:45.944Z,6.09
2019-02-21T07:12:43.547Z,6.11
2019-02-21T07:13:43.561Z,6.08
2019-02-21T07:14:43.536Z,6.09
2019-02-21T07:15:43.552Z,6.05
2019-02-21T07:16:43.956Z,6.11
2019-02-21T07:17:49.239Z,6.20
2019-02-21T07:18:44.522Z,6.36
2019-02-21T07:19:43.554Z,6.38
2019-02-21T07:20:43.527Z,6.38
2019-02-21T07:21:43.811Z,6.52
2019-02-21T07:22:43.485Z,6.59
2019-02-21T07:23:43.975Z,6.59
2019-02-21T07:24:43.420Z,6.66
2019-02-21T07:25:43.418Z,6.72
2019-02-21T07:26:43.507Z,6.72
2019-02-21T07:27:43.418Z,6.75
2019-02-21T07:28:43.412Z,6.77
2019-02-21T07:29:43.361Z,6.85
2019-02-21T07:30:43.351Z,6.81
2019-02-21T07:31:43.379Z,6.81
2019-02-21T07:32:43.372Z,6.82
2019-02-21T07:33:43.670Z,6.87
2019-02-21T07:34:43.516Z,6.93
2019-02-21T07:35:43.325Z,6.97
2019-02-21T07:36:43.868Z,7.00
2019-02-21T07:37:43.293Z,6.97
2019-02-21T07:38:43.312Z,7.06
2019-02-21T07:39:43.324Z,7.03
2019-02-21T07:40:43.388Z,7.18
2019-02-21T07:41:43.444Z,7.23
2019-02-21T07:42:43.374Z,7.24
2019-02-21T07:43:43.326Z,7.35
2019-02-21T07:44:45.322Z,7.31
2019-02-21T07:45:43.341Z,7.40
2019-02-21T07:46:43.199Z,7.47
2019-02-21T07:47:43.205Z,7.48
2019-02-21T07:48:43.300Z,7.54
2019-02-21T07:49:43.156Z,7.58
2019-02-21T07:50:43.138Z,7.73
2019-02-21T07:51:43.145Z,7.72
2019-02-21T07:52:43.140Z,7.73
2019-02-21T07:53:43.244Z,7.63
2019-02-21T07:54:43.096Z,7.70
2019-02-21T07:55:43.098Z,7.70
2019-02-21T07:56:43.094Z,7.70
2019-02-21T07:57:43.127Z,7.73
2019-02-21T07:58:43.051Z,7.72
2019-02-21T07:59:43.720Z,7.79
2019-02-21T08:00:43.043Z,7.73
2019-02-21T08:01:43.043Z,7.70
2019-02-21T08:02:43.065Z,7.75
2019-02-21T08:03:45.923Z,7.85
2019-02-21T08:04:42.987Z,7.88
2019-02-21T08:05:43.348Z,7.90
2019-02-21T08:06:43.049Z,7.88
2019-02-21T08:07:43.017Z,7.97
2019-02-21T08:08:44.924Z,7.98
2019-02-21T08:09:42.993Z,7.98
2019-02-21T08:10:42.919Z,7.98
2019-02-21T08:11:42.961Z,8.08
2019-02-21T08:12:42.937Z,8.24
2019-02-21T08:13:42.934Z,8.26
2019-02-21T08:14:43.459Z,8.31
2019-02-21T08:15:43.284Z,8.42
2019-02-21T08:16:42.894Z,8.38
2019-02-21T08:17:42.919Z,8.38
2019-02-21T08:18:43.253Z,8.52
2019-02-21T08:19:43.014Z,8.55
2019-02-21T08:20:42.874Z,8.70
2019-02-21T08:21:43.601Z,8.92
2019-02-21T08:22:42.914Z,8.91
2019-02-21T08:23:50.551Z,9.04
2019-02-21T08:24:43.939Z,9.18
2019-02-21T08:25:43.089Z,9.29
2019-02-21T08:26:42.852Z,9.34
2019-02-21T08:27:42.776Z,9.46
2019-02-21T08:28:42.832Z,9.55
2019-02-21T08:29:42.767Z,9.61
2019-02-21T08:30:42.775Z,9.68
2019-02-21T08:31:42.963Z,9.68
2019-02-21T08:32:42.919Z,9.64
2019-02-21T08:33:45.622Z,9.66
2019-02-21T08:34:43.803Z,9.72
2019-02-21T08:35:42.676Z,9.68
2019-02-21T08:36:42.640Z,9.65
2019-02-21T08:37:42.629Z,9.76
2019-02-21T08:38:42.627Z,9.69
2019-02-21T08:39:42.634Z,9.64
2019-02-21T08:40:42.597Z,9.68
2019-02-21T08:41:42.583Z,9.69
2019-02-21T08:42:42.573Z,9.66
2019-02-21T08:43:42.561Z,9.77
2019-02-21T08:44:42.574Z,9.76
2019-02-21T08:45:42.572Z,9.64
2019-02-21T08:46:42.574Z,9.66
2019-02-21T08:47:42.519Z,9.74
2019-02-21T08:48:42.509Z,9.84
2019-02-21T08:49:42.517Z,9.84
2019-02-21T08:50:42.493Z,9.76
2019-02-21T08:51:42.480Z,9.95
2019-02-21T08:52:42.534Z,9.94
2019-02-21T08:53:42.539Z,9.98
2019-02-21T08:54:42.461Z,9.95
2019-02-21T08:55:42.431Z,9.98
2019-02-21T08:56:42.425Z,10.04
2019-02-21T08:57:42.413Z,9.92
2019-02-21T08:58:42.405Z,10.04
2019-02-21T08:59:42.481Z,9.98
2019-02-21T09:00:42.381Z,9.97
2019-02-21T09:01:42.387Z,10.04
2019-02-21T09:02:42.355Z,10.10
2019-02-21T09:03:42.352Z,10.19
2019-02-21T09:04:42.358Z,10.28
2019-02-21T09:05:42.325Z,10.33
2019-02-21T09:06:42.314Z,10.30
2019-02-21T09:07:42.347Z,10.37
2019-02-21T09:08:42.298Z,10.30
2019-02-21T09:09:42.288Z,10.31
2019-02-21T09:10:42.291Z,10.31
2019-02-21T09:11:42.488Z,10.33
2019-02-21T09:12:42.315Z,10.34
2019-02-21T09:13:42.341Z,10.34
2019-02-21T09:14:42.361Z,10.30
2019-02-21T09:15:42.797Z,10.31
2019-02-21T09:16:42.626Z,10.23
2019-02-21T09:17:42.277Z,10.35
2019-02-21T09:18:42.215Z,10.38
2019-02-21T09:19:42.452Z,10.42
2019-02-21T09:20:42.181Z,10.42
2019-02-21T09:21:42.233Z,10.38
2019-02-21T09:22:42.167Z,10.41
2019-02-21T09:23:42.151Z,10.46
2019-02-21T09:24:42.618Z,10.56
2019-02-21T09:25:42.108Z,10.61
2019-02-21T09:26:42.117Z,10.68
2019-02-21T09:27:42.121Z,10.71
2019-02-21T09:28:42.075Z,10.61
2019-02-21T09:29:42.073Z,10.46
2019-02-21T09:30:42.081Z,10.37
2019-02-21T09:31:42.103Z,10.38
2019-02-21T09:32:42.169Z,10.35
2019-02-21T09:33:43.754Z,10.28
2019-02-21T09:34:42.017Z,10.20
2019-02-21T09:35:42.036Z,10.15
2019-02-21T09:36:42.003Z,10.19
2019-02-21T09:37:41.981Z,10.09
2019-02-21T09:38:41.998Z,10.01
2019-02-21T09:39:42.011Z,10.01
2019-02-21T09:40:42.766Z,10.12
2019-02-21T09:41:41.935Z,9.98
2019-02-21T09:42:42.024Z,9.99
2019-02-21T09:43:41.930Z,10.04
2019-02-21T09:44:41.903Z,10.10
2019-02-21T09:45:42.338Z,9.97
2019-02-21T09:46:41.879Z,10.05
2019-02-21T09:47:41.893Z,9.92
2019-02-21T09:48:41.909Z,9.99
2019-02-21T09:49:41.856Z,10.04
2019-02-21T09:50:41.874Z,10.15
2019-02-21T09:51:41.825Z,10.22
2019-02-21T09:52:41.814Z,10.46
2019-02-21T09:53:41.812Z,10.51
2019-02-21T09:54:41.799Z,10.61
2019-02-21T09:55:41.804Z,10.74
2019-02-21T09:56:52.092Z,10.87
2019-02-21T09:57:42.758Z,10.99
2019-02-21T09:58:41.747Z,11.00
2019-02-21T09:59:41.736Z,10.99
2019-02-21T10:00:41.752Z,10.96
2019-02-21T10:01:41.729Z,10.94
2019-02-21T10:02:42.182Z,11.00
2019-02-21T10:03:44.124Z,11.07
2019-02-21T10:04:41.695Z,11.19
2019-02-21T10:05:41.702Z,11.30
2019-02-21T10:06:41.678Z,11.35
2019-02-21T10:07:41.658Z,11.51
2019-02-21T10:08:41.653Z,11.43
2019-02-21T10:09:41.642Z,11.43
2019-02-21T10:10:41.685Z,11.51
2019-02-21T10:11:41.660Z,11.43
2019-02-21T10:12:41.658Z,11.44
2019-02-21T10:13:41.596Z,11.36
2019-02-21T10:14:41.582Z,11.40
2019-02-21T10:15:41.571Z,11.44
2019-02-21T10:16:41.586Z,11.37
2019-02-21T10:17:41.584Z,11.18
2019-02-21T10:18:41.535Z,11.19
2019-02-21T10:19:41.520Z,11.08
2019-02-21T10:20:41.512Z,11.17
2019-02-21T10:21:41.502Z,11.22
2019-02-21T10:22:41.515Z,11.43
2019-02-21T10:23:42.244Z,11.27
2019-02-21T10:24:41.472Z,11.32
2019-02-21T10:25:41.459Z,11.26
2019-02-21T10:26:41.513Z,11.22
2019-02-21T10:27:41.493Z,11.07
2019-02-21T10:28:41.436Z,11.02
2019-02-21T10:29:41.440Z,10.96
2019-02-21T10:30:41.419Z,11.04
2019-02-21T10:31:41.452Z,11.00
2019-02-21T10:32:41.383Z,11.02
2019-02-21T10:33:46.862Z,10.96
2019-02-21T10:34:43.359Z,10.99
2019-02-21T10:35:41.363Z,10.99
2019-02-21T10:36:41.371Z,11.00
2019-02-21T10:37:41.329Z,10.96
2019-02-21T10:38:41.315Z,11.00
2019-02-21T10:39:41.329Z,10.99
2019-02-21T10:40:41.300Z,11.00
2019-02-21T10:41:41.304Z,11.11
2019-02-21T10:42:41.273Z,11.19
2019-02-21T10:43:41.272Z,11.29
2019-02-21T10:44:41.251Z,11.18
2019-02-21T10:45:47.760Z,11.35
2019-02-21T10:46:42.233Z,11.36
2019-02-21T10:47:41.222Z,11.40
2019-02-21T10:48:41.211Z,11.33
2019-02-21T10:49:41.197Z,11.30
2019-02-21T10:50:41.206Z,11.30
2019-02-21T10:51:41.224Z,11.45
2019-02-21T10:52:41.720Z,11.57
2019-02-21T10:53:41.171Z,11.69
2019-02-21T10:54:41.148Z,11.84
2019-02-21T10:55:41.129Z,11.95
2019-02-21T10:56:41.122Z,12.27
2019-02-21T10:57:41.151Z,12.50
2019-02-21T10:58:41.108Z,12.57
2019-02-21T10:59:46.547Z,12.64
2019-02-21T11:00:42.246Z,12.61
2019-02-21T11:01:41.066Z,12.61
2019-02-21T11:02:41.081Z,12.55
2019-02-21T11:03:41.049Z,12.68
2019-02-21T11:04:42.234Z,12.87
2019-02-21T11:05:41.025Z,12.98
2019-02-21T11:06:41.019Z,13.08
2019-02-21T11:07:41.024Z,13.20
2019-02-21T11:08:41.012Z,13.20
2019-02-21T11:09:40.979Z,13.38
2019-02-21T11:10:40.984Z,13.52
2019-02-21T11:11:40.963Z,13.63
2019-02-21T11:12:41.009Z,13.50
2019-02-21T11:13:40.938Z,13.33
2019-02-21T11:14:47.437Z,13.37
2019-02-21T11:15:42.254Z,13.37
2019-02-21T11:16:40.962Z,13.39
2019-02-21T11:17:40.922Z,13.37
2019-02-21T11:18:40.887Z,13.54
2019-02-21T11:19:40.877Z,13.39
2019-02-21T11:20:40.864Z,13.38
2019-02-21T11:21:40.855Z,13.47
2019-02-21T11:22:40.867Z,13.50
2019-02-21T11:23:40.893Z,13.59
2019-02-21T11:24:40.820Z,13.47
2019-02-21T11:25:40.825Z,13.47
2019-02-21T11:26:40.835Z,13.35
2019-02-21T11:27:40.806Z,13.42
2019-02-21T11:28:40.860Z,13.37
2019-02-21T11:29:40.767Z,13.50
2019-02-21T11:30:40.762Z,13.52
2019-02-21T11:31:40.794Z,13.60
2019-02-21T11:32:40.735Z,13.67
2019-02-21T11:33:40.824Z,13.56
2019-02-21T11:34:40.709Z,13.49
2019-02-21T11:35:40.712Z,13.57
2019-02-21T11:36:40.687Z,13.44
2019-02-21T11:37:45.602Z,13.30
2019-02-21T11:38:41.710Z,13.25
2019-02-21T11:39:40.671Z,13.42
2019-02-21T11:40:40.695Z,13.44
2019-02-21T11:41:40.692Z,13.49
2019-02-21T11:42:40.682Z,13.23
2019-02-21T11:43:40.803Z,13.31
2019-02-21T11:44:40.764Z,13.52
2019-02-21T11:45:40.715Z,13.50
2019-02-21T11:46:40.590Z,13.65
2019-02-21T11:47:40.572Z,13.49
2019-02-21T11:48:40.580Z,13.37
2019-02-21T11:49:40.594Z,13.37
2019-02-21T11:50:40.562Z,13.35
2019-02-21T11:51:40.534Z,13.33
2019-02-21T11:52:40.526Z,13.41
2019-02-21T11:53:40.542Z,13.38
2019-02-21T11:54:40.564Z,13.54
2019-02-21T11:55:40.485Z,13.60
2019-02-21T11:56:40.475Z,13.49
2019-02-21T11:57:40.468Z,13.60
2019-02-21T11:58:40.468Z,13.62
2019-02-21T11:59:40.456Z,13.59
2019-02-21T12:00:40.450Z,13.57
2019-02-21T12:01:40.455Z,13.59
2019-02-21T12:02:40.418Z,13.65
2019-02-21T12:03:40.437Z,13.67
2019-02-21T12:04:40.403Z,13.63
2019-02-21T12:05:40.376Z,13.67
2019-02-21T12:06:40.434Z,13.68
2019-02-21T12:07:40.357Z,13.74
2019-02-21T12:08:40.360Z,13.71
2019-02-21T12:09:40.372Z,13.87
2019-02-21T12:10:40.326Z,13.95
2019-02-21T12:11:40.382Z,13.83
2019-02-21T12:12:40.334Z,13.89
2019-02-21T12:13:40.318Z,13.89
2019-02-21T12:14:40.287Z,13.71
2019-02-21T12:15:40.279Z,13.70
2019-02-21T12:16:40.354Z,13.56
2019-02-21T12:17:42.399Z,13.37
2019-02-21T12:18:40.238Z,13.39
2019-02-21T12:19:40.290Z,13.42
2019-02-21T12:20:40.244Z,13.33
2019-02-21T12:21:40.276Z,13.37
2019-02-21T12:22:40.240Z,13.50
2019-02-21T12:23:40.210Z,13.50
2019-02-21T12:24:40.243Z,13.56
2019-02-21T12:25:40.162Z,13.50
2019-02-21T12:26:40.237Z,13.52
2019-02-21T12:27:40.334Z,13.59
2019-02-21T12:28:40.275Z,13.65
2019-02-21T12:29:40.210Z,13.79
2019-02-21T12:30:40.156Z,13.86
2019-02-21T12:31:40.195Z,13.96
2019-02-21T12:32:40.113Z,14.04
2019-02-21T12:33:40.083Z,14.07
2019-02-21T12:34:40.096Z,13.93
2019-02-21T12:35:40.066Z,13.92
2019-02-21T12:36:40.181Z,13.92
2019-02-21T12:37:40.044Z,13.85
2019-02-21T12:38:40.032Z,13.68
2019-02-21T12:39:40.016Z,13.54
2019-02-21T12:40:40.020Z,13.54
2019-02-21T12:41:40.002Z,13.71
2019-02-21T12:42:40.003Z,13.71
2019-02-21T12:43:40.034Z,13.65
2019-02-21T12:44:39.983Z,13.53
2019-02-21T12:45:39.950Z,13.31
2019-02-21T12:46:39.939Z,13.09
2019-02-21T12:47:49.763Z,13.04
2019-02-21T12:48:40.965Z,13.13
2019-02-21T12:49:39.917Z,13.13
2019-02-21T12:50:44.322Z,13.15
2019-02-21T12:51:39.886Z,13.28
2019-02-21T12:52:39.871Z,13.19
2019-02-21T12:53:39.868Z,13.13
2019-02-21T12:54:39.880Z,13.11
2019-02-21T12:55:39.877Z,13.03
2019-02-21T12:56:39.834Z,12.95
2019-02-21T12:57:39.843Z,12.82
2019-02-21T12:58:39.809Z,12.94
2019-02-21T12:59:39.829Z,12.90
2019-02-21T13:00:39.865Z,12.94
2019-02-21T13:01:39.816Z,12.86
2019-02-21T13:02:39.770Z,12.94
2019-02-21T13:03:39.778Z,12.97
2019-02-21T13:04:39.750Z,13.01
2019-02-21T13:05:41.282Z,13.05
2019-02-21T13:06:39.726Z,13.16
2019-02-21T13:07:39.726Z,13.16
2019-02-21T13:08:39.707Z,13.27
2019-02-21T13:09:39.706Z,13.20
2019-02-21T13:10:39.678Z,13.37